Time;durP1;ratioP1;P1;durP2;ratioP2;P2;SDS_P1;SDS_P2;PMS_P1;PMS_P2;Temp;Humidity;BMP_temperature;BMP_pressure;BME280_temperature;BME280_humidity;BME280_pressure;Samples;Min_cycle;Max_cycle;Signal;HPM_P1;HPM_P2
2022/04/11 00:00:51;;;;;;;4.73;2.87;;;;;;;;;;5073786;28;20474;-55
2022/04/11 00:03:17;;;;;;;3.27;2.97;;;;;;;;;;5073969;28;20547;-56
2022/04/11 00:05:43;;;;;;;3.67;3.07;;;;;;;;;;5073598;28;20634;-55
2022/04/11 00:08:09;;;;;;;5.87;3.20;;;;;;;;;;5073643;28;20426;-55
2022/04/11 00:10:35;;;;;;;3.57;2.67;;;;;;;;;;5073487;28;20437;-56
2022/04/11 00:13:04;;;;;;;4.47;2.80;;;;;;;;;;5071644;28;20438;-56
2022/04/11 00:15:33;;;;;;;5.07;2.60;;;;;;;;;;5073819;28;20433;-59
2022/04/11 00:18:00;;;;;;;2.90;2.60;;;;;;;;;;5073923;28;20797;-57
2022/04/11 00:20:26;;;;;;;3.00;2.47;;;;;;;;;;5073447;28;21001;-57
2022/04/11 00:22:52;;;;;;;3.70;2.90;;;;;;;;;;5073562;28;20450;-55
2022/04/11 00:25:18;;;;;;;4.03;3.00;;;;;;;;;;5073347;28;20458;-55
2022/04/11 00:27:44;;;;;;;2.80;2.60;;;;;;;;;;5073637;28;20199;-56
2022/04/11 00:30:11;;;;;;;6.10;2.63;;;;;;;;;;5073407;28;20195;-56
2022/04/11 00:32:40;;;;;;;4.53;3.17;;;;;;;;;;5073078;28;20499;-55
2022/04/11 00:35:07;;;;;;;3.97;2.90;;;;;;;;;;5073147;28;20502;-55
2022/04/11 00:37:33;;;;;;;3.93;2.73;;;;;;;;;;5073272;28;20434;-56
2022/04/11 00:39:59;;;;;;;3.73;2.40;;;;;;;;;;5073269;28;20449;-59
2022/04/11 00:42:27;;;;;;;2.83;2.40;;;;;;;;;;5073090;28;20200;-56
2022/04/11 00:44:53;;;;;;;5.20;2.83;;;;;;;;;;5073158;28;20500;-56
2022/04/11 00:47:19;;;;;;;4.03;2.70;;;;;;;;;;5073032;28;20936;-56
2022/04/11 00:49:47;;;;;;;3.50;2.83;;;;;;;;;;5073146;28;20260;-56
2022/04/11 00:52:13;;;;;;;3.73;3.17;;;;;;;;;;5073210;28;20446;-55
2022/04/11 00:54:41;;;;;;;4.23;3.03;;;;;;;;;;5072717;28;20480;-55
2022/04/11 00:57:07;;;;;;;3.17;2.87;;;;;;;;;;5072815;28;20433;-55
2022/04/11 00:59:33;;;;;;;3.80;2.97;;;;;;;;;;5072515;28;20434;-56
2022/04/11 01:02:00;;;;;;;4.07;3.27;;;;;;;;;;5073006;28;20441;-55
2022/04/11 01:04:27;;;;;;;9.50;5.77;;;;;;;;;;5072815;28;20492;-56
2022/04/11 01:06:55;;;;;;;6.03;3.67;;;;;;;;;;5072642;28;20454;-55
2022/04/11 01:09:21;;;;;;;5.13;3.43;;;;;;;;;;5072850;28;20446;-56
2022/04/11 01:11:47;;;;;;;4.77;3.40;;;;;;;;;;5072334;28;20434;-56
2022/04/11 01:14:13;;;;;;;5.10;3.03;;;;;;;;;;5072316;28;20509;-56
2022/04/11 01:16:39;;;;;;;3.90;3.30;;;;;;;;;;5072381;28;20470;-54
2022/04/11 01:19:06;;;;;;;4.13;3.10;;;;;;;;;;5072021;28;20211;-55
2022/04/11 01:21:33;;;;;;;3.67;2.73;;;;;;;;;;5072346;28;20290;-54
2022/04/11 01:23:59;;;;;;;3.17;2.87;;;;;;;;;;5072414;28;20456;-55
2022/04/11 01:26:27;;;;;;;4.37;3.20;;;;;;;;;;5072220;28;20438;-55
2022/04/11 01:28:53;;;;;;;3.03;2.73;;;;;;;;;;5072182;28;20852;-56
2022/04/11 01:31:19;;;;;;;4.83;3.00;;;;;;;;;;5072208;28;20460;-55
2022/04/11 01:33:45;;;;;;;3.40;3.10;;;;;;;;;;5072129;28;20486;-56
2022/04/11 01:36:11;;;;;;;4.50;2.97;;;;;;;;;;5072277;28;20694;-54
2022/04/11 01:38:38;;;;;;;4.37;3.30;;;;;;;;;;5072116;28;20207;-55
2022/04/11 01:41:04;;;;;;;4.03;3.33;;;;;;;;;;5072000;28;20195;-55
2022/04/11 01:43:30;;;;;;;4.43;3.60;;;;;;;;;;5071966;28;20596;-55
2022/04/11 01:45:56;;;;;;;3.27;2.97;;;;;;;;;;5072233;28;20561;-56
2022/04/11 01:48:22;;;;;;;4.70;3.77;;;;;;;;;;5072020;28;20210;-55
2022/04/11 01:50:48;;;;;;;5.53;3.33;;;;;;;;;;5071889;28;20650;-55
2022/04/11 01:53:15;;;;;;;4.57;3.20;;;;;;;;;;5072022;28;20205;-55
2022/04/11 01:55:42;;;;;;;3.80;3.27;;;;;;;;;;5071905;28;20425;-55
2022/04/11 01:58:09;;;;;;;5.33;3.87;;;;;;;;;;5071929;28;20525;-55
2022/04/11 02:00:36;;;;;;;6.20;3.30;;;;;;;;;;5071650;28;20842;-55
2022/04/11 02:03:02;;;;;;;3.13;2.93;;;;;;;;;;5071954;28;20790;-56
2022/04/11 02:05:28;;;;;;;4.20;3.17;;;;;;;;;;5070492;28;20434;-56
2022/04/11 02:07:54;;;;;;;3.70;3.20;;;;;;;;;;5071841;28;20442;-56
2022/04/11 02:10:21;;;;;;;5.40;3.33;;;;;;;;;;5071779;28;20724;-56
2022/04/11 02:12:48;;;;;;;5.13;3.90;;;;;;;;;;5070459;28;20452;-55
2022/04/11 02:15:14;;;;;;;5.40;3.67;;;;;;;;;;5072009;28;20481;-56
2022/04/11 02:17:41;;;;;;;5.43;3.60;;;;;;;;;;5071674;28;20445;-56
2022/04/11 02:20:08;;;;;;;4.37;3.43;;;;;;;;;;5071951;28;20449;-54
2022/04/11 02:22:44;;;;;;;5.60;3.87;;;;;;;;;;5071547;28;20480;-54
2022/04/11 02:25:10;;;;;;;4.20;3.47;;;;;;;;;;5071710;28;20449;-54
2022/04/11 02:27:36;;;;;;;4.13;3.23;;;;;;;;;;5071563;28;20442;-55
2022/04/11 02:30:04;;;;;;;3.93;3.13;;;;;;;;;;5074666;28;20196;-55
2022/04/11 02:32:30;;;;;;;3.97;3.50;;;;;;;;;;5075874;28;20502;-55
2022/04/11 02:34:56;;;;;;;4.33;3.60;;;;;;;;;;5075542;28;20500;-55
2022/04/11 02:37:22;;;;;;;6.00;4.57;;;;;;;;;;5075684;28;20517;-55
2022/04/11 02:39:48;;;;;;;5.17;3.77;;;;;;;;;;5075703;28;20203;-56
2022/04/11 02:42:20;;;;;;;5.40;3.80;;;;;;;;;;5075615;28;20222;-55
2022/04/11 02:44:46;;;;;;;4.03;3.63;;;;;;;;;;5075431;28;20244;-56
2022/04/11 02:47:13;;;;;;;4.07;3.60;;;;;;;;;;5075285;28;20437;-55
2022/04/11 02:49:39;;;;;;;5.30;4.13;;;;;;;;;;5075170;28;20207;-56
2022/04/11 02:52:05;;;;;;;4.30;3.80;;;;;;;;;;5075254;28;20434;-57
2022/04/11 02:54:31;;;;;;;5.73;4.20;;;;;;;;;;5075250;28;20519;-56
2022/04/11 02:56:57;;;;;;;4.23;3.70;;;;;;;;;;5075362;28;20799;-56
2022/04/11 02:59:23;;;;;;;4.33;3.70;;;;;;;;;;5074873;28;20286;-57
2022/04/11 03:01:50;;;;;;;5.50;4.07;;;;;;;;;;5074810;28;20251;-57
2022/04/11 03:04:17;;;;;;;5.63;4.17;;;;;;;;;;5074962;28;20442;-56
2022/04/11 03:06:43;;;;;;;4.77;4.00;;;;;;;;;;5075037;28;20441;-57
2022/04/11 03:09:09;;;;;;;4.10;3.70;;;;;;;;;;5075205;28;20532;-55
2022/04/11 03:11:35;;;;;;;7.37;4.03;;;;;;;;;;5074939;28;20948;-56
2022/04/11 03:14:01;;;;;;;4.77;4.03;;;;;;;;;;5074937;28;20328;-56
2022/04/11 03:16:27;;;;;;;5.87;4.10;;;;;;;;;;5074702;28;20455;-54
2022/04/11 03:18:53;;;;;;;7.47;4.03;;;;;;;;;;5074938;28;20207;-55
2022/04/11 03:21:20;;;;;;;8.07;3.93;;;;;;;;;;5074574;28;20437;-56
2022/04/11 03:23:46;;;;;;;5.53;4.10;;;;;;;;;;5074544;28;20222;-56
2022/04/11 03:26:12;;;;;;;4.93;4.13;;;;;;;;;;5074705;28;20442;-56
2022/04/11 03:28:38;;;;;;;4.40;4.00;;;;;;;;;;5074536;28;20250;-55
2022/04/11 03:31:04;;;;;;;5.83;4.30;;;;;;;;;;5074481;28;20241;-57
2022/04/11 03:33:30;;;;;;;4.73;3.97;;;;;;;;;;5074387;28;20203;-57
2022/04/11 03:35:56;;;;;;;4.97;3.93;;;;;;;;;;5074373;28;20505;-56
2022/04/11 03:38:24;;;;;;;3.70;3.40;;;;;;;;;;5074326;28;20283;-56
2022/04/11 03:40:50;;;;;;;4.67;4.10;;;;;;;;;;5073579;28;20449;-56
2022/04/11 03:43:16;;;;;;;4.93;4.13;;;;;;;;;;5074437;28;20449;-56
2022/04/11 03:45:42;;;;;;;4.70;3.67;;;;;;;;;;5074043;28;20215;-55
2022/04/11 03:48:08;;;;;;;5.83;4.43;;;;;;;;;;5074257;28;20199;-54
2022/04/11 03:50:34;;;;;;;5.30;4.33;;;;;;;;;;5073986;28;20487;-55
2022/04/11 03:53:00;;;;;;;6.23;4.00;;;;;;;;;;5074301;28;20713;-57
2022/04/11 03:55:27;;;;;;;4.53;4.13;;;;;;;;;;5073948;28;20281;-54
2022/04/11 03:57:53;;;;;;;5.70;4.23;;;;;;;;;;5074219;28;20206;-56
2022/04/11 04:00:19;;;;;;;7.07;4.30;;;;;;;;;;5073842;28;20474;-55
2022/04/11 04:02:45;;;;;;;5.40;4.40;;;;;;;;;;5074017;28;20207;-54
2022/04/11 04:05:11;;;;;;;5.47;4.73;;;;;;;;;;5074025;28;20199;-54
2022/04/11 04:07:37;;;;;;;7.40;4.77;;;;;;;;;;5073785;28;20294;-54
2022/04/11 04:10:03;;;;;;;5.67;4.30;;;;;;;;;;5073863;28;20204;-55
2022/04/11 04:12:30;;;;;;;5.07;4.30;;;;;;;;;;5073763;28;20434;-55
2022/04/11 04:14:56;;;;;;;6.20;4.73;;;;;;;;;;5073641;28;20482;-57
2022/04/11 04:17:23;;;;;;;8.03;4.43;;;;;;;;;;5073562;28;20433;-55
2022/04/11 04:19:49;;;;;;;7.80;4.77;;;;;;;;;;5073304;28;20517;-55
2022/04/11 04:22:15;;;;;;;5.83;4.13;;;;;;;;;;5073345;28;20441;-55
2022/04/11 04:24:41;;;;;;;7.33;4.30;;;;;;;;;;5073282;28;20462;-54
2022/04/11 04:27:07;;;;;;;4.53;4.03;;;;;;;;;;5073568;28;20513;-55
2022/04/11 04:29:35;;;;;;;5.53;4.03;;;;;;;;;;5073280;28;20437;-55
2022/04/11 04:32:01;;;;;;;5.43;4.70;;;;;;;;;;5073471;28;20520;-55
2022/04/11 04:34:29;;;;;;;4.10;3.67;;;;;;;;;;5073066;28;20461;-56
2022/04/11 04:36:55;;;;;;;4.20;3.80;;;;;;;;;;5073284;28;20450;-56
2022/04/11 04:39:21;;;;;;;4.43;4.03;;;;;;;;;;5073184;28;20446;-56
2022/04/11 04:41:47;;;;;;;5.67;3.97;;;;;;;;;;5072922;28;20438;-56
2022/04/11 04:44:13;;;;;;;5.60;4.27;;;;;;;;;;5073235;28;20851;-56
2022/04/11 04:46:40;;;;;;;7.17;4.57;;;;;;;;;;5072855;28;20461;-56
2022/04/11 04:49:06;;;;;;;8.80;4.80;;;;;;;;;;5072971;28;20542;-54
2022/04/11 04:51:32;;;;;;;5.47;4.60;;;;;;;;;;5072763;28;20971;-56
2022/04/11 04:53:58;;;;;;;5.73;4.50;;;;;;;;;;5072193;28;20231;-54
2022/04/11 04:56:24;;;;;;;5.47;4.50;;;;;;;;;;5072734;28;20448;-55
2022/04/11 04:58:51;;;;;;;5.57;4.27;;;;;;;;;;5072738;28;20199;-55
2022/04/11 05:01:18;;;;;;;7.50;4.90;;;;;;;;;;5072594;28;20477;-55
2022/04/11 05:03:45;;;;;;;6.90;5.03;;;;;;;;;;5072754;28;20438;-55
2022/04/11 05:06:11;;;;;;;6.53;4.80;;;;;;;;;;5072577;28;20442;-55
2022/04/11 05:08:37;;;;;;;6.20;4.77;;;;;;;;;;5072552;28;20517;-56
2022/04/11 05:11:03;;;;;;;5.57;4.47;;;;;;;;;;5072621;28;20674;-54
2022/04/11 05:13:29;;;;;;;5.17;4.10;;;;;;;;;;5072420;28;20234;-54
2022/04/11 05:15:55;;;;;;;6.47;4.67;;;;;;;;;;5072386;28;20204;-55
2022/04/11 05:18:21;;;;;;;6.13;5.40;;;;;;;;;;5072366;28;20568;-55
2022/04/11 05:20:51;;;;;;;6.03;4.23;;;;;;;;;;5072416;28;20471;-55
2022/04/11 05:23:18;;;;;;;6.70;4.30;;;;;;;;;;5072389;28;20206;-55
2022/04/11 05:25:44;;;;;;;4.67;3.70;;;;;;;;;;5072260;28;20426;-55
2022/04/11 05:28:10;;;;;;;5.77;3.73;;;;;;;;;;5072372;28;20426;-55
2022/04/11 05:30:36;;;;;;;4.57;4.00;;;;;;;;;;5072254;28;20750;-55
2022/04/11 05:33:02;;;;;;;5.07;3.87;;;;;;;;;;5072237;28;20235;-55
2022/04/11 05:35:28;;;;;;;6.97;4.10;;;;;;;;;;5072142;28;20234;-55
2022/04/11 05:37:56;;;;;;;5.77;4.70;;;;;;;;;;5072206;28;20422;-54
2022/04/11 05:40:22;;;;;;;5.17;4.20;;;;;;;;;;5072103;28;20619;-56
2022/04/11 05:42:48;;;;;;;4.87;4.30;;;;;;;;;;5071998;28;20528;-54
2022/04/11 05:45:14;;;;;;;4.70;3.93;;;;;;;;;;5072250;28;20191;-56
2022/04/11 05:47:40;;;;;;;6.10;4.33;;;;;;;;;;5071671;28;20265;-55
2022/04/11 05:50:06;;;;;;;4.70;3.83;;;;;;;;;;5072030;28;20187;-54
2022/04/11 05:52:32;;;;;;;7.07;4.10;;;;;;;;;;5071925;28;20437;-54
2022/04/11 05:55:00;;;;;;;4.73;4.10;;;;;;;;;;5072092;28;20478;-54
2022/04/11 05:57:26;;;;;;;6.40;4.23;;;;;;;;;;5071927;28;20471;-54
2022/04/11 05:59:52;;;;;;;6.73;4.17;;;;;;;;;;5071819;28;20434;-54
2022/04/11 06:02:18;;;;;;;6.80;4.30;;;;;;;;;;5071860;28;20294;-56
2022/04/11 06:04:44;;;;;;;4.77;3.97;;;;;;;;;;5071440;28;20206;-55
2022/04/11 06:07:10;;;;;;;5.50;3.80;;;;;;;;;;5071790;28;20213;-54
2022/04/11 06:09:36;;;;;;;4.30;3.90;;;;;;;;;;5071825;28;20885;-55
2022/04/11 06:12:04;;;;;;;5.20;3.80;;;;;;;;;;5071808;28;20270;-55
2022/04/11 06:14:29;;;;;;;5.47;3.80;;;;;;;;;;5071686;28;21079;-55
2022/04/11 06:16:55;;;;;;;4.77;3.53;;;;;;;;;;5071851;28;20500;-55
2022/04/11 06:19:22;;;;;;;5.13;3.53;;;;;;;;;;5071686;28;20540;-56
2022/04/11 06:21:48;;;;;;;5.40;3.87;;;;;;;;;;5071641;28;20438;-56
2022/04/11 06:24:14;;;;;;;4.80;4.00;;;;;;;;;;5071647;28;20524;-56
2022/04/11 06:26:39;;;;;;;4.70;3.90;;;;;;;;;;5071480;28;20995;-56
2022/04/11 06:29:07;;;;;;;6.00;3.87;;;;;;;;;;5071607;28;20224;-56
2022/04/11 06:31:33;;;;;;;4.00;3.70;;;;;;;;;;5071514;28;20211;-56
2022/04/11 06:33:59;;;;;;;5.13;3.73;;;;;;;;;;5071527;28;20477;-56
2022/04/11 06:36:25;;;;;;;4.13;3.30;;;;;;;;;;5071260;28;20437;-56
2022/04/11 06:38:51;;;;;;;4.77;3.23;;;;;;;;;;5071514;28;20265;-56
2022/04/11 06:41:17;;;;;;;3.53;3.23;;;;;;;;;;5071508;28;20195;-56
2022/04/11 06:43:43;;;;;;;3.90;3.50;;;;;;;;;;5071400;28;20480;-57
2022/04/11 06:46:10;;;;;;;3.90;3.03;;;;;;;;;;5071076;28;20662;-56
2022/04/11 06:48:36;;;;;;;5.07;3.20;;;;;;;;;;5070997;28;20211;-57
2022/04/11 06:51:02;;;;;;;4.20;3.17;;;;;;;;;;5071324;28;20453;-57
2022/04/11 06:53:28;;;;;;;4.40;3.00;;;;;;;;;;5071558;28;20662;-57
2022/04/11 06:55:54;;;;;;;4.80;3.03;;;;;;;;;;5071244;28;20532;-57
2022/04/11 06:58:20;;;;;;;3.13;2.53;;;;;;;;;;5070741;28;20194;-57
2022/04/11 07:00:46;;;;;;;4.03;2.63;;;;;;;;;;5070552;28;20280;-58
2022/04/11 07:03:14;;;;;;;4.57;2.77;;;;;;;;;;5071131;28;20199;-57
2022/04/11 07:05:40;;;;;;;4.43;2.80;;;;;;;;;;5070967;28;20944;-58
2022/04/11 07:08:07;;;;;;;4.93;2.90;;;;;;;;;;5071018;28;20476;-58
2022/04/11 07:10:33;;;;;;;4.37;2.30;;;;;;;;;;5070992;28;20818;-57
2022/04/11 07:12:59;;;;;;;2.83;2.50;;;;;;;;;;5071249;28;20457;-58
2022/04/11 07:15:25;;;;;;;3.60;2.80;;;;;;;;;;5071073;28;20512;-58
2022/04/11 07:17:51;;;;;;;5.80;2.57;;;;;;;;;;5074481;28;20445;-56
2022/04/11 07:20:18;;;;;;;2.97;2.20;;;;;;;;;;5074761;28;20521;-57
2022/04/11 07:22:44;;;;;;;3.03;2.40;;;;;;;;;;5074765;28;20298;-58
2022/04/11 07:25:10;;;;;;;4.60;2.53;;;;;;;;;;5074801;28;20477;-58
2022/04/11 07:27:36;;;;;;;5.03;2.43;;;;;;;;;;5074686;28;20230;-57
2022/04/11 07:30:03;;;;;;;5.53;2.17;;;;;;;;;;5074898;28;20788;-58
2022/04/11 07:32:29;;;;;;;3.83;2.80;;;;;;;;;;5074475;28;20199;-57
2022/04/11 07:34:57;;;;;;;3.60;2.57;;;;;;;;;;5074464;28;20223;-57
2022/04/11 07:37:25;;;;;;;3.77;2.53;;;;;;;;;;5074395;28;20202;-57
2022/04/11 07:39:51;;;;;;;4.33;2.33;;;;;;;;;;5074328;28;20211;-56
2022/04/11 07:42:17;;;;;;;3.00;2.60;;;;;;;;;;5074342;28;20207;-57
2022/04/11 07:44:43;;;;;;;3.80;2.33;;;;;;;;;;5074125;28;20214;-57
2022/04/11 07:47:10;;;;;;;3.90;2.53;;;;;;;;;;5074010;28;20210;-54
2022/04/11 07:49:36;;;;;;;4.73;2.33;;;;;;;;;;5073944;28;20207;-56
2022/04/11 07:52:02;;;;;;;4.17;2.60;;;;;;;;;;5074264;28;20203;-55
2022/04/11 07:54:29;;;;;;;3.50;2.23;;;;;;;;;;5073951;28;20313;-55
2022/04/11 07:56:55;;;;;;;5.00;2.37;;;;;;;;;;5073693;28;20688;-54
2022/04/11 07:59:21;;;;;;;5.30;2.60;;;;;;;;;;5074133;28;20199;-55
2022/04/11 08:01:47;;;;;;;3.77;2.30;;;;;;;;;;5071913;28;20235;-55
2022/04/11 08:04:13;;;;;;;2.30;2.10;;;;;;;;;;5073983;28;20219;-55
2022/04/11 08:06:39;;;;;;;3.33;2.70;;;;;;;;;;5073557;28;20200;-54
2022/04/11 08:09:05;;;;;;;3.50;2.43;;;;;;;;;;5073636;28;20221;-54
2022/04/11 08:11:32;;;;;;;4.30;2.87;;;;;;;;;;5073579;28;20203;-54
2022/04/11 08:13:58;;;;;;;4.90;2.97;;;;;;;;;;5074047;28;20199;-54
2022/04/11 08:16:24;;;;;;;4.57;2.40;;;;;;;;;;5073616;28;20581;-54
2022/04/11 08:18:50;;;;;;;3.10;2.43;;;;;;;;;;5073543;28;20199;-55
2022/04/11 08:21:16;;;;;;;2.67;2.23;;;;;;;;;;5073934;28;20571;-54
2022/04/11 08:23:42;;;;;;;3.90;2.23;;;;;;;;;;5073622;28;20215;-55
2022/04/11 08:26:08;;;;;;;4.53;2.30;;;;;;;;;;5073761;28;20686;-54
2022/04/11 08:28:35;;;;;;;4.03;2.67;;;;;;;;;;5073455;28;20215;-54
2022/04/11 08:31:01;;;;;;;3.00;1.90;;;;;;;;;;5073730;28;20294;-55
2022/04/11 08:33:27;;;;;;;5.00;2.33;;;;;;;;;;5073394;28;20249;-54
2022/04/11 08:35:53;;;;;;;4.37;2.57;;;;;;;;;;5073384;28;20227;-54
2022/04/11 08:38:20;;;;;;;3.90;2.30;;;;;;;;;;5073481;28;20204;-54
2022/04/11 08:40:46;;;;;;;2.83;2.43;;;;;;;;;;5073297;28;20209;-54
2022/04/11 08:43:14;;;;;;;5.37;2.60;;;;;;;;;;5073283;28;20227;-54
2022/04/11 08:45:41;;;;;;;4.50;2.40;;;;;;;;;;5073222;28;20202;-55
2022/04/11 08:48:08;;;;;;;3.43;2.37;;;;;;;;;;5072937;28;20200;-55
2022/04/11 08:50:33;;;;;;;3.20;2.43;;;;;;;;;;5073004;28;20203;-54
2022/04/11 08:53:00;;;;;;;4.37;2.50;;;;;;;;;;5073238;28;20195;-55
2022/04/11 08:55:25;;;;;;;5.40;2.17;;;;;;;;;;5072951;28;20227;-54
2022/04/11 08:57:51;;;;;;;4.33;2.60;;;;;;;;;;5072868;28;20211;-55
2022/04/11 09:00:20;;;;;;;3.53;2.40;;;;;;;;;;5072880;28;20579;-54
2022/04/11 09:02:47;;;;;;;3.50;2.40;;;;;;;;;;5072958;28;20208;-55
2022/04/11 09:05:19;;;;;;;6.13;2.20;;;;;;;;;;5072771;28;20199;-55
2022/04/11 09:07:46;;;;;;;2.50;2.30;;;;;;;;;;5072871;28;20223;-54
2022/04/11 09:10:12;;;;;;;10.47;2.50;;;;;;;;;;5072871;28;20199;-54
2022/04/11 09:12:44;;;;;;;4.13;2.67;;;;;;;;;;5072459;28;20633;-54
2022/04/11 09:15:10;;;;;;;3.57;2.33;;;;;;;;;;5072446;28;20273;-55
2022/04/11 09:17:40;;;;;;;3.60;2.50;;;;;;;;;;5072295;28;20203;-55
2022/04/11 09:20:10;;;;;;;3.63;2.40;;;;;;;;;;5072113;28;20219;-54
2022/04/11 09:22:36;;;;;;;4.50;2.37;;;;;;;;;;5072350;28;20235;-55
2022/04/11 09:25:05;;;;;;;4.20;2.60;;;;;;;;;;5072458;28;20629;-55
2022/04/11 09:27:31;;;;;;;3.63;2.83;;;;;;;;;;5072514;28;20203;-55
2022/04/11 09:29:57;;;;;;;4.90;2.90;;;;;;;;;;5072528;28;20195;-55
2022/04/11 09:32:23;;;;;;;2.73;2.27;;;;;;;;;;5072456;28;20205;-55
2022/04/11 09:34:53;;;;;;;3.43;2.27;;;;;;;;;;5072168;28;20208;-56
2022/04/11 09:37:21;;;;;;;3.90;2.63;;;;;;;;;;5072457;28;20231;-54
2022/04/11 09:39:54;;;;;;;5.23;2.60;;;;;;;;;;5071487;28;20199;-54
2022/04/11 09:42:28;;;;;;;4.70;2.70;;;;;;;;;;5072218;28;20195;-56
2022/04/11 09:44:59;;;;;;;3.77;2.40;;;;;;;;;;5072156;28;20195;-54
2022/04/11 09:47:25;;;;;;;4.50;2.90;;;;;;;;;;5072253;28;20230;-55
2022/04/11 09:49:51;;;;;;;3.97;2.90;;;;;;;;;;5071742;28;20219;-56
2022/04/11 09:52:17;;;;;;;4.03;2.73;;;;;;;;;;5072101;28;20204;-54
2022/04/11 09:54:45;;;;;;;3.53;2.80;;;;;;;;;;5072161;28;20216;-56
2022/04/11 09:57:12;;;;;;;4.47;2.80;;;;;;;;;;5072146;28;20563;-55
2022/04/11 09:59:39;;;;;;;5.20;2.90;;;;;;;;;;5071906;28;20207;-55
2022/04/11 10:02:06;;;;;;;4.47;3.20;;;;;;;;;;5072212;28;20257;-57
2022/04/11 10:04:33;;;;;;;5.60;3.10;;;;;;;;;;5072024;28;20198;-54
2022/04/11 10:06:59;;;;;;;4.53;3.23;;;;;;;;;;5071993;28;20286;-56
2022/04/11 10:09:25;;;;;;;5.27;3.53;;;;;;;;;;5071770;28;20199;-55
2022/04/11 10:11:54;;;;;;;4.17;3.30;;;;;;;;;;5071587;28;20199;-55
2022/04/11 10:14:23;;;;;;;5.13;3.57;;;;;;;;;;5071946;28;20223;-54
2022/04/11 10:16:50;;;;;;;4.73;3.40;;;;;;;;;;5071819;28;20203;-55
2022/04/11 10:19:16;;;;;;;7.03;3.60;;;;;;;;;;5071652;28;20279;-55
2022/04/11 10:21:44;;;;;;;7.63;3.70;;;;;;;;;;5071667;28;20639;-54
2022/04/11 10:24:14;;;;;;;5.50;3.37;;;;;;;;;;5071836;28;20223;-54
2022/04/11 10:26:44;;;;;;;4.37;3.80;;;;;;;;;;5071781;28;20237;-55
2022/04/11 10:29:24;;;;;;;4.50;3.80;;;;;;;;;;5071949;28;20198;-54
2022/04/11 10:32:04;;;;;;;4.33;3.40;;;;;;;;;;5071527;28;20219;-56
2022/04/11 10:34:45;;;;;;;4.20;3.57;;;;;;;;;;5071641;28;20256;-54
2022/04/11 10:37:11;;;;;;;4.67;4.10;;;;;;;;;;5071986;28;20198;-55
2022/04/11 10:39:39;;;;;;;3.97;3.57;;;;;;;;;;5071461;28;20198;-55
2022/04/11 10:42:12;;;;;;;4.73;4.33;;;;;;;;;;5071755;28;20210;-56
2022/04/11 10:44:39;;;;;;;5.77;4.60;;;;;;;;;;5071439;28;20249;-55
2022/04/11 10:47:26;;;;;;;6.77;4.13;;;;;;;;;;5071194;28;20206;-54
2022/04/11 10:50:11;;;;;;;5.53;4.30;;;;;;;;;;5071484;28;20263;-55
2022/04/11 10:52:40;;;;;;;5.83;5.23;;;;;;;;;;5075098;28;20188;-54
2022/04/11 10:55:07;;;;;;;6.47;4.70;;;;;;;;;;5075149;28;20255;-54
2022/04/11 10:57:36;;;;;;;5.73;4.30;;;;;;;;;;5075082;28;20201;-54
2022/04/11 11:00:06;;;;;;;5.97;5.00;;;;;;;;;;5075112;28;20242;-54
2022/04/11 11:02:47;;;;;;;7.33;4.50;;;;;;;;;;5075105;28;20214;-54
2022/04/11 11:05:27;;;;;;;5.87;4.37;;;;;;;;;;5074949;28;20201;-54
2022/04/11 11:08:10;;;;;;;4.97;4.33;;;;;;;;;;5075004;28;20280;-54
2022/04/11 11:10:43;;;;;;;5.43;4.80;;;;;;;;;;5074916;28;20203;-54
2022/04/11 11:13:29;;;;;;;4.93;4.40;;;;;;;;;;5075010;28;20223;-53
2022/04/11 11:15:55;;;;;;;7.27;4.37;;;;;;;;;;5074830;28;20234;-53
2022/04/11 11:18:21;;;;;;;5.63;4.50;;;;;;;;;;5074897;28;20250;-53
2022/04/11 11:20:52;;;;;;;5.47;4.83;;;;;;;;;;5074599;28;20207;-54
2022/04/11 11:23:26;;;;;;;5.90;4.90;;;;;;;;;;5074705;28;20199;-55
2022/04/11 11:25:52;;;;;;;5.30;4.63;;;;;;;;;;5074166;28;20192;-56
2022/04/11 11:28:18;;;;;;;6.23;5.50;;;;;;;;;;5073365;28;20269;-54
2022/04/11 11:30:45;;;;;;;6.50;4.87;;;;;;;;;;5074526;28;20199;-54
2022/04/11 11:33:13;;;;;;;5.73;4.63;;;;;;;;;;5074332;28;20245;-53
2022/04/11 11:35:46;;;;;;;5.77;4.67;;;;;;;;;;5074587;28;20227;-53
2022/04/11 11:38:14;;;;;;;5.73;4.43;;;;;;;;;;5074654;28;20196;-53
2022/04/11 11:40:43;;;;;;;5.47;4.80;;;;;;;;;;5074400;28;20253;-54
2022/04/11 11:43:12;;;;;;;6.27;5.00;;;;;;;;;;5074495;28;20681;-54
2022/04/11 11:45:40;;;;;;;7.37;5.50;;;;;;;;;;5074411;28;20298;-53
2022/04/11 11:48:20;;;;;;;7.43;5.43;;;;;;;;;;5074350;28;20202;-53
2022/04/11 11:50:46;;;;;;;7.67;5.37;;;;;;;;;;5074074;28;20248;-53
2022/04/11 11:53:15;;;;;;;8.63;5.50;;;;;;;;;;5074293;28;20195;-54
2022/04/11 11:55:50;;;;;;;5.77;5.00;;;;;;;;;;5074297;28;20231;-54
2022/04/11 11:58:16;;;;;;;9.57;5.87;;;;;;;;;;5074385;28;20202;-54
2022/04/11 12:00:46;;;;;;;7.03;5.97;;;;;;;;;;5074164;28;20238;-53
2022/04/11 12:05:58;;;;;;;6.00;5.30;;;;;;;;;;5074146;28;20623;-53
2022/04/11 12:08:30;;;;;;;6.60;5.30;;;;;;;;;;5074164;28;20589;-52
2022/04/11 12:10:57;;;;;;;5.73;5.23;;;;;;;;;;5073980;28;20247;-52
2022/04/11 12:13:25;;;;;;;6.10;5.50;;;;;;;;;;5073908;28;20195;-53
2022/04/11 12:15:51;;;;;;;6.10;5.30;;;;;;;;;;5073761;28;20235;-54
2022/04/11 12:18:17;;;;;;;6.57;5.47;;;;;;;;;;5073905;28;20199;-53
2022/04/11 12:20:44;;;;;;;5.43;4.90;;;;;;;;;;5073918;28;20630;-54
2022/04/11 12:23:11;;;;;;;5.80;5.13;;;;;;;;;;5073802;28;20750;-52
2022/04/11 12:25:39;;;;;;;5.13;4.73;;;;;;;;;;5073651;28;20215;-55
2022/04/11 12:28:09;;;;;;;6.87;4.70;;;;;;;;;;5073661;28;20748;-54
2022/04/11 12:30:35;;;;;;;8.53;5.20;;;;;;;;;;5073461;28;20217;-53
2022/04/11 12:33:01;;;;;;;4.93;4.53;;;;;;;;;;5073244;28;20201;-54
2022/04/11 12:35:27;;;;;;;5.97;4.60;;;;;;;;;;5073440;28;20584;-53
2022/04/11 12:37:56;;;;;;;7.13;4.90;;;;;;;;;;5073548;28;20198;-54
2022/04/11 12:40:41;;;;;;;5.60;5.00;;;;;;;;;;5073434;28;20252;-53
2022/04/11 12:43:08;;;;;;;6.10;4.77;;;;;;;;;;5073548;28;20208;-53
2022/04/11 12:45:34;;;;;;;6.73;5.20;;;;;;;;;;5073419;28;20212;-54
2022/04/11 12:48:01;;;;;;;5.93;4.70;;;;;;;;;;5073070;28;20192;-53
2022/04/11 12:50:27;;;;;;;6.00;5.17;;;;;;;;;;5073051;28;20287;-53
2022/04/11 12:52:54;;;;;;;5.50;4.57;;;;;;;;;;5072898;28;20195;-53
2022/04/11 12:55:23;;;;;;;6.70;4.83;;;;;;;;;;5072860;28;20637;-52
2022/04/11 12:57:59;;;;;;;6.57;5.07;;;;;;;;;;5073029;28;20196;-54
2022/04/11 13:00:27;;;;;;;5.80;5.20;;;;;;;;;;5072890;28;20263;-53
2022/04/11 13:02:55;;;;;;;6.73;4.90;;;;;;;;;;5072766;28;20674;-53
2022/04/11 13:05:21;;;;;;;5.50;5.00;;;;;;;;;;5072775;28;20199;-48
2022/04/11 13:07:48;;;;;;;6.13;5.53;;;;;;;;;;5072816;28;20297;-50
2022/04/11 13:10:15;;;;;;;5.27;4.57;;;;;;;;;;5072944;28;20260;-47
2022/04/11 13:12:41;;;;;;;6.20;5.60;;;;;;;;;;5072442;28;20793;-49
2022/04/11 13:15:08;;;;;;;8.97;5.37;;;;;;;;;;5071921;28;20237;-55
2022/04/11 13:20:23;;;;;;;5.50;5.00;;;;;;;;;;5072193;28;20267;-55
2022/04/11 13:22:49;;;;;;;8.30;5.57;;;;;;;;;;5072306;28;20209;-55
2022/04/11 13:25:17;;;;;;;6.40;5.33;;;;;;;;;;5072660;28;20222;-54
2022/04/11 13:27:43;;;;;;;8.87;5.70;;;;;;;;;;5072421;28;20662;-52
2022/04/11 13:30:10;;;;;;;5.87;5.17;;;;;;;;;;5072462;28;20237;-55
2022/04/11 13:32:37;;;;;;;5.53;5.03;;;;;;;;;;5072251;28;20211;-54
2022/04/11 13:35:03;;;;;;;5.67;5.17;;;;;;;;;;5072458;28;20230;-54
2022/04/11 13:37:29;;;;;;;5.43;4.93;;;;;;;;;;5072335;28;20564;-55
2022/04/11 13:39:55;;;;;;;6.13;5.17;;;;;;;;;;5072173;28;20202;-55
2022/04/11 13:42:21;;;;;;;6.23;5.30;;;;;;;;;;5072271;28;20201;-55
2022/04/11 13:44:50;;;;;;;5.67;4.77;;;;;;;;;;5072186;28;20197;-54
2022/04/11 13:47:16;;;;;;;7.10;4.80;;;;;;;;;;5072132;28;20206;-55
2022/04/11 13:49:43;;;;;;;7.37;4.97;;;;;;;;;;5071836;28;20218;-56
2022/04/11 13:52:09;;;;;;;6.13;5.00;;;;;;;;;;5072359;28;20300;-56
2022/04/11 13:54:35;;;;;;;5.50;5.00;;;;;;;;;;5070115;28;20234;-56
2022/04/11 13:57:01;;;;;;;5.53;5.00;;;;;;;;;;5071821;28;20206;-56
2022/04/11 13:59:27;;;;;;;5.63;4.90;;;;;;;;;;5071785;28;20257;-55
2022/04/11 14:01:53;;;;;;;6.20;5.37;;;;;;;;;;5071866;28;20238;-56
2022/04/11 14:04:24;;;;;;;6.93;5.07;;;;;;;;;;5071668;28;20289;-56
2022/04/11 14:06:51;;;;;;;5.83;4.50;;;;;;;;;;5071577;28;20201;-55
2022/04/11 14:09:17;;;;;;;5.80;4.57;;;;;;;;;;5071589;28;20297;-58
2022/04/11 14:11:45;;;;;;;5.10;4.60;;;;;;;;;;5071693;28;20248;-55
2022/04/11 14:14:11;;;;;;;5.93;4.23;;;;;;;;;;5071625;28;20256;-56
2022/04/11 14:16:39;;;;;;;4.73;4.00;;;;;;;;;;5071433;28;20229;-56
2022/04/11 14:19:05;;;;;;;4.00;3.63;;;;;;;;;;5071544;28;20263;-55
2022/04/11 14:21:31;;;;;;;9.73;8.63;;;;;;;;;;5071485;28;20195;-56
2022/04/11 14:23:59;;;;;;;5.60;4.73;;;;;;;;;;5071365;28;20283;-56
2022/04/11 14:26:25;;;;;;;6.23;4.60;;;;;;;;;;5075214;28;20204;-55
2022/04/11 14:28:51;;;;;;;6.47;4.70;;;;;;;;;;5075616;28;20205;-57
2022/04/11 14:31:17;;;;;;;5.50;5.00;;;;;;;;;;5075583;28;20202;-56
2022/04/11 14:33:43;;;;;;;4.63;4.23;;;;;;;;;;5075464;28;20199;-55
2022/04/11 14:36:09;;;;;;;14.83;13.23;;;;;;;;;;5075316;28;20236;-56
2022/04/11 14:38:37;;;;;;;7.43;5.13;;;;;;;;;;5075553;28;20203;-56
2022/04/11 14:41:06;;;;;;;6.63;5.10;;;;;;;;;;5075220;28;20199;-55
2022/04/11 14:43:33;;;;;;;5.00;4.47;;;;;;;;;;5075259;28;20658;-56
2022/04/11 14:45:59;;;;;;;5.80;5.17;;;;;;;;;;5075415;28;20207;-55
2022/04/11 14:48:26;;;;;;;5.23;4.50;;;;;;;;;;5075279;28;20294;-55